Time;durP1;ratioP1;P1;durP2;ratioP2;P2;SDS_P1;SDS_P2;PMS_P1;PMS_P2;Temp;Humidity;BMP_temperature;BMP_pressure;BME280_temperature;BME280_humidity;BME280_pressure;Samples;Min_cycle;Max_cycle;Signal;HPM_P1;HPM_P2
2021/08/23 00:59:12;;;;;;;12.35;9.52;;;15.60;99.90;;;17.02;100.00;100814.31;6160411;23;20028;-89
2021/08/23 01:02:31;;;;;;;13.27;11.02;;;15.60;99.90;;;16.98;100.00;100817.16;6133918;23;20017;-91
2021/08/23 01:05:14;;;;;;;11.50;8.93;;;15.50;99.90;;;16.91;100.00;100819.97;6134017;23;20435;-89
2021/08/23 01:08:32;;;;;;;12.82;9.13;;;15.40;99.90;;;16.86;100.00;100821.13;6104006;23;20069;-89
2021/08/23 01:11:03;;;;;;;13.43;9.65;;;15.40;99.90;;;16.82;100.00;100820.31;6129252;23;20321;-91
2021/08/23 01:13:33;;;;;;;16.73;11.75;;;15.30;99.90;;;16.81;100.00;100818.72;6103547;23;20017;-90
2021/08/23 01:16:00;;;;;;;19.73;12.98;;;15.30;99.90;;;16.80;100.00;100827.56;6129199;23;20060;-89
2021/08/23 01:18:26;;;;;;;14.90;9.52;;;15.30;99.90;;;16.73;100.00;100827.50;6129476;23;20006;-91
2021/08/23 01:20:55;;;;;;;15.98;11.65;;;15.30;99.90;;;16.70;100.00;100831.13;6129547;23;20006;-89
2021/08/23 01:23:22;;;;;;;13.93;9.77;;;15.20;99.90;;;16.66;100.00;100831.09;6127337;23;20337;-89
2021/08/23 01:25:49;;;;;;;15.82;11.95;;;15.20;99.90;;;16.66;100.00;100835.97;6103199;23;20006;-93
2021/08/23 01:28:41;;;;;;;18.20;12.80;;;15.10;99.90;;;16.64;100.00;100829.88;6102479;23;20104;-89
2021/08/23 01:31:39;;;;;;;17.40;13.32;;;15.10;99.90;;;16.75;100.00;100847.69;6126742;23;20041;-91
2021/08/23 01:34:07;;;;;;;17.17;10.57;;;15.20;99.90;;;16.80;100.00;100836.81;6127819;23;20356;-87
2021/08/23 01:36:36;;;;;;;16.55;11.32;;;15.20;99.90;;;16.88;100.00;100846.13;6127580;23;20068;-88
2021/08/23 01:39:04;;;;;;;13.43;9.60;;;15.30;99.90;;;16.94;100.00;100858.66;6103201;23;20041;-88
2021/08/23 01:41:30;;;;;;;12.57;9.00;;;15.40;99.90;;;16.98;100.00;100856.66;6132329;23;20013;-84
2021/08/23 01:43:56;;;;;;;13.93;10.25;;;15.40;99.90;;;17.05;100.00;100850.25;6127123;23;20021;-85
2021/08/23 01:46:21;;;;;;;10.43;8.43;;;15.50;99.90;;;17.11;100.00;100854.31;6140700;23;20020;-88
2021/08/23 01:48:48;;;;;;;11.65;9.27;;;15.50;99.90;;;17.14;100.00;100862.78;6126614;23;20097;-90
2021/08/23 01:51:15;;;;;;;13.02;9.70;;;15.60;99.90;;;17.18;100.00;100860.75;6102696;23;20036;-91
2021/08/23 01:53:41;;;;;;;12.98;9.13;;;15.60;99.90;;;17.23;100.00;100859.56;6126637;23;20024;-90
2021/08/23 01:56:07;;;;;;;15.40;10.35;;;15.70;99.90;;;17.26;100.00;100865.25;6127603;23;20006;-90
2021/08/23 01:58:33;;;;;;;13.35;10.15;;;15.70;99.90;;;17.27;100.00;100866.84;6126529;23;20018;-90
2021/08/23 02:00:59;;;;;;;12.75;10.40;;;15.70;99.90;;;17.31;100.00;100864.03;6126176;23;20017;-90
2021/08/23 02:03:25;;;;;;;13.48;10.57;;;15.70;99.90;;;17.35;100.00;100870.50;6126143;23;20010;-89
2021/08/23 02:05:52;;;;;;;11.35;8.70;;;15.80;99.90;;;17.39;100.00;100874.16;6127593;23;20010;-89
2021/08/23 02:08:17;;;;;;;12.35;8.93;;;15.80;99.90;;;17.40;100.00;100865.25;6101778;23;20010;-90
2021/08/23 02:10:43;;;;;;;13.20;8.93;;;15.80;99.90;;;17.43;100.00;100866.50;6101396;23;20006;-91
2021/08/23 02:13:09;;;;;;;11.48;8.52;;;15.80;99.90;;;17.48;100.00;100873.75;6101772;23;20432;-88
2021/08/23 02:15:35;;;;;;;10.98;8.57;;;15.90;99.90;;;17.50;100.00;100874.19;6102347;23;20057;-89
2021/08/23 02:18:01;;;;;;;12.35;9.35;;;15.90;99.90;;;17.51;100.00;100873.75;6102551;23;20376;-90
2021/08/23 02:20:27;;;;;;;14.02;9.63;;;15.90;99.90;;;17.51;100.00;100872.94;6102365;23;20368;-89
2021/08/23 02:22:54;;;;;;;11.77;8.52;;;15.90;99.90;;;17.50;100.00;100880.63;6128096;23;19998;-88
2021/08/23 02:25:22;;;;;;;11.27;7.95;;;15.90;99.90;;;17.52;100.00;100886.69;6126860;23;20384;-92
2021/08/23 02:27:50;;;;;;;12.02;9.25;;;15.90;99.90;;;17.54;100.00;100880.63;6103121;23;20360;-90
2021/08/23 02:30:16;;;;;;;15.45;10.27;;;15.90;99.90;;;17.53;100.00;100877.00;6103132;23;20025;-92
2021/08/23 02:32:43;;;;;;;19.55;12.25;;;15.90;99.90;;;17.52;100.00;100866.09;6127476;23;20017;-89
2021/08/23 02:35:10;;;;;;;16.15;12.18;;;15.90;99.90;;;17.51;100.00;100881.44;6126911;23;20010;-91
2021/08/23 02:37:35;;;;;;;16.27;11.43;;;15.90;99.90;;;17.49;100.00;100881.03;6127171;23;20013;-89
2021/08/23 02:40:02;;;;;;;15.73;11.43;;;15.90;99.90;;;17.46;100.00;100890.31;6127319;23;20062;-90
2021/08/23 02:42:28;;;;;;;14.85;9.57;;;15.90;99.90;;;17.44;100.00;100895.53;6103563;23;20006;-86
2021/08/23 02:44:53;;;;;;;14.25;10.75;;;15.90;99.90;;;17.42;100.00;100895.13;6104285;23;20025;-87
2021/08/23 02:47:19;;;;;;;18.05;12.98;;;15.90;99.90;;;17.42;100.00;100900.78;6127906;23;20009;-89
2021/08/23 02:49:45;;;;;;;15.43;11.65;;;15.80;99.90;;;17.43;100.00;100906.03;6125930;23;20412;-90
2021/08/23 02:52:11;;;;;;;15.52;11.00;;;15.90;99.90;;;17.46;100.00;100904.41;6101401;23;20016;-92
2021/08/23 02:54:37;;;;;;;12.32;9.70;;;15.80;99.90;;;17.49;100.00;100906.44;6101625;23;20014;-91
2021/08/23 02:57:03;;;;;;;11.73;9.48;;;15.90;99.90;;;17.53;100.00;100907.28;6101880;23;20321;-91
2021/08/23 02:59:29;;;;;;;12.73;9.05;;;15.90;99.90;;;17.57;100.00;100900.44;6101816;23;20455;-92
2021/08/23 03:01:55;;;;;;;13.07;10.02;;;16.00;99.90;;;17.62;100.00;100899.25;6128751;23;20468;-91
2021/08/23 03:04:21;;;;;;;12.45;9.20;;;16.00;99.90;;;17.67;100.00;100901.66;6128811;23;20045;-92
2021/08/23 03:06:47;;;;;;;11.77;9.25;;;16.10;99.90;;;17.70;100.00;100912.16;6128087;23;20005;-91
2021/08/23 03:09:13;;;;;;;12.43;8.90;;;16.10;99.90;;;17.72;100.00;100910.56;6103311;23;20014;-91
2021/08/23 03:11:38;;;;;;;13.63;9.43;;;16.10;99.90;;;17.73;100.00;100914.19;6103467;23;20347;-89
2021/08/23 03:14:05;;;;;;;13.02;10.32;;;16.20;99.90;;;17.75;100.00;100906.94;6128650;23;20424;-90
2021/08/23 03:16:31;;;;;;;13.45;9.13;;;16.20;99.90;;;17.76;100.00;100919.03;6128768;23;20002;-92
2021/08/23 03:18:57;;;;;;;14.02;10.70;;;16.10;99.90;;;17.76;100.00;100914.19;6102820;23;20057;-90
2021/08/23 03:21:23;;;;;;;11.18;8.77;;;16.10;99.90;;;17.78;100.00;100913.81;6127161;23;20013;-89
2021/08/23 03:23:49;;;;;;;21.27;12.82;;;16.20;99.90;;;17.80;100.00;100915.03;6127861;23;20086;-89
2021/08/23 03:26:15;;;;;;;16.13;11.95;;;16.10;99.90;;;17.81;100.00;100921.50;6101708;23;20077;-89
2021/08/23 03:28:41;;;;;;;15.18;11.57;;;16.20;99.90;;;17.83;100.00;100921.88;6101134;23;20100;-90
2021/08/23 03:31:07;;;;;;;15.45;11.63;;;16.10;99.90;;;17.87;100.00;100931.19;6125695;23;20089;-89
2021/08/23 03:33:34;;;;;;;13.52;10.32;;;16.20;99.90;;;17.92;100.00;100930.78;6125939;23;20010;-88
2021/08/23 03:36:00;;;;;;;12.93;9.90;;;16.30;99.90;;;17.95;100.00;100932.00;6125762;23;20014;-91
2021/08/23 03:38:27;;;;;;;15.80;10.88;;;16.30;99.90;;;17.99;100.00;100927.97;6100977;23;20097;-91
2021/08/23 03:40:53;;;;;;;12.98;9.70;;;16.40;99.90;;;18.00;100.00;100923.94;6100839;23;20021;-87
2021/08/23 03:43:20;;;;;;;18.25;11.10;;;16.30;99.90;;;18.02;100.00;100926.34;6101312;23;20375;-87
2021/08/23 03:45:46;;;;;;;17.95;11.60;;;16.40;99.90;;;18.04;100.00;100936.06;6128712;23;20006;-91
2021/08/23 03:48:11;;;;;;;21.90;15.38;;;16.40;99.90;;;18.07;100.00;100929.59;6129452;23;20090;-89
2021/08/23 03:50:37;;;;;;;23.08;13.40;;;16.40;99.90;;;18.05;100.00;100926.34;6128088;23;20036;-87
2021/08/23 03:53:03;;;;;;;33.17;21.25;;;16.50;99.90;;;18.10;100.00;100925.97;6128311;23;20021;-85
2021/08/23 03:55:29;;;;;;;31.70;18.80;;;16.40;99.90;;;18.10;100.00;100925.97;6127645;23;20012;-87
2021/08/23 03:57:55;;;;;;;28.35;17.50;;;16.50;99.90;;;18.11;100.00;100932.44;6102615;23;20014;-89
2021/08/23 04:00:21;;;;;;;24.00;16.50;;;16.50;99.90;;;18.13;100.00;100933.66;6128568;23;20401;-86
2021/08/23 04:02:46;;;;;;;39.55;24.02;;;16.50;99.90;;;18.12;100.00;100932.00;6150175;23;20037;-86
2021/08/23 04:05:12;;;;;;;36.25;22.95;;;16.50;99.90;;;18.11;100.00;100940.91;6142809;23;20029;-91
2021/08/23 04:07:38;;;;;;;37.67;24.60;;;16.50;99.90;;;18.15;100.00;100941.69;6128998;23;20052;-89
2021/08/23 04:10:19;;;;;;;45.05;27.25;;;16.50;99.90;;;18.10;100.00;100934.44;6102492;23;20101;-92
2021/08/23 04:12:45;;;;;;;42.92;27.88;;;16.60;99.90;;;18.11;100.00;100940.91;6101879;23;20009;-90
2021/08/23 04:15:11;;;;;;;40.25;26.30;;;16.50;99.90;;;18.04;100.00;100935.25;6126740;23;20016;-90
2021/08/23 04:18:42;;;;;;;46.92;30.02;;;16.50;99.90;;;18.08;100.00;100953.00;6128891;23;20081;-86
2021/08/23 04:21:09;;;;;;;45.28;27.27;;;16.50;99.90;;;18.07;100.00;100960.69;6103768;23;20017;-89
2021/08/23 04:23:35;;;;;;;48.63;30.10;;;16.40;99.90;;;18.08;100.00;100970.78;6128406;23;20006;-90
2021/08/23 04:26:02;;;;;;;43.13;28.30;;;16.50;99.90;;;18.06;100.00;100969.56;6103601;23;20048;-91
2021/08/23 04:28:28;;;;;;;52.50;29.98;;;16.50;99.90;;;18.05;100.00;100968.75;6103532;23;20010;-89
2021/08/23 04:30:54;;;;;;;53.95;31.30;;;16.40;99.90;;;18.01;100.00;100978.44;6128410;23;20250;-89
2021/08/23 04:33:23;;;;;;;43.45;28.33;;;16.40;99.90;;;18.03;100.00;100982.50;6127755;23;20089;-91
2021/08/23 04:35:49;;;;;;;49.03;27.92;;;16.40;99.90;;;18.03;100.00;100985.31;6129252;23;20017;-87
2021/08/23 04:38:15;;;;;;;48.08;27.83;;;16.40;99.90;;;18.06;100.00;100984.50;6128811;23;20046;-89
2021/08/23 04:40:41;;;;;;;42.92;27.27;;;16.50;99.90;;;18.08;100.00;100993.38;6129315;23;20012;-91
2021/08/23 04:43:07;;;;;;;47.58;27.80;;;16.50;99.90;;;18.11;100.00;100991.81;6128012;23;20014;-91
2021/08/23 04:45:33;;;;;;;49.42;28.00;;;16.50;99.90;;;18.07;100.00;100993.81;6129910;23;20073;-89
2021/08/23 04:47:59;;;;;;;55.78;33.15;;;16.50;99.90;;;18.04;100.00;100991.78;6105203;23;20044;-89
2021/08/23 04:50:25;;;;;;;47.58;29.70;;;16.50;99.90;;;18.05;100.00;100994.19;6105204;23;20030;-90
2021/08/23 04:52:51;;;;;;;43.60;26.65;;;16.40;99.90;;;18.08;100.00;100998.22;6129819;23;20064;-90
2021/08/23 04:55:17;;;;;;;47.60;29.85;;;16.40;99.90;;;18.05;100.00;100994.19;6130414;23;20014;-88
2021/08/23 04:57:44;;;;;;;44.45;28.20;;;16.40;99.90;;;18.06;100.00;101000.66;6104805;23;20025;-89
2021/08/23 05:00:12;;;;;;;46.40;28.55;;;16.40;99.90;;;18.05;100.00;101008.31;6128633;23;20006;-89
2021/08/23 05:02:38;;;;;;;41.83;23.90;;;16.40;99.90;;;18.06;100.00;101007.13;6128621;23;20006;-89
2021/08/23 05:05:06;;;;;;;51.17;31.02;;;16.50;99.90;;;18.06;100.00;101003.47;6129766;23;20037;-88
2021/08/23 05:07:32;;;;;;;43.35;26.35;;;16.40;99.90;;;18.07;100.00;100988.16;6131320;23;20018;-88
2021/08/23 05:10:00;;;;;;;47.20;28.00;;;16.40;99.90;;;18.09;100.00;100995.00;6131816;23;20029;-89
2021/08/23 05:12:25;;;;;;;45.22;26.55;;;16.40;99.90;;;18.09;100.00;101000.66;6130889;23;20444;-90
2021/08/23 05:14:52;;;;;;;41.00;24.60;;;16.40;99.90;;;18.10;100.00;100996.63;6110017;23;20010;-90
2021/08/23 05:17:18;;;;;;;47.47;30.02;;;16.50;99.90;;;18.08;100.00;100993.38;6128609;23;20426;-89
2021/08/23 05:19:44;;;;;;;46.35;27.67;;;16.50;99.90;;;18.10;100.00;100996.63;6103222;23;20017;-91
2021/08/23 05:22:11;;;;;;;39.83;25.17;;;16.50;99.90;;;18.13;100.00;100986.53;6128111;23;20010;-90
2021/08/23 05:24:38;;;;;;;44.17;27.63;;;16.50;99.90;;;18.16;100.00;101005.53;6128723;23;20013;-89
2021/08/23 05:27:04;;;;;;;42.88;26.45;;;16.50;99.90;;;18.20;100.00;100998.69;6128684;23;20451;-90
2021/08/23 05:29:30;;;;;;;46.20;27.48;;;16.50;99.90;;;18.27;100.00;101006.34;6128784;23;20006;-89
2021/08/23 05:32:16;;;;;;;55.50;32.70;;;16.60;99.90;;;18.30;100.00;101008.38;6129109;23;20392;-88
2021/08/23 05:34:45;;;;;;;;;;;16.60;99.90;;;18.31;100.00;101007.97;6127367;23;20006;-89
2021/08/23 05:37:13;;;;;;;44.65;27.52;;;16.70;99.90;;;18.33;100.00;101014.03;6106883;23;19951;-90
2021/08/23 05:39:39;;;;;;;40.55;25.40;;;16.70;99.90;;;18.34;100.00;101012.81;6130086;23;20009;-90
2021/08/23 05:42:05;;;;;;;34.25;22.58;;;16.60;99.90;;;18.38;100.00;101018.47;6130700;23;20099;-89
2021/08/23 05:44:31;;;;;;;44.22;27.88;;;16.70;99.90;;;18.37;100.00;101016.84;6127842;23;20005;-90
2021/08/23 05:46:57;;;;;;;42.60;27.30;;;16.70;99.90;;;18.35;100.00;101022.94;6128658;23;20499;-88
2021/08/23 05:49:23;;;;;;;39.70;25.30;;;16.70;99.90;;;18.36;100.00;101018.09;6103596;23;20009;-87
2021/08/23 05:51:49;;;;;;;46.60;28.45;;;16.70;99.90;;;18.37;100.00;101031.81;6127655;23;20056;-89
2021/08/23 05:54:15;;;;;;;49.05;29.83;;;16.70;99.90;;;18.38;100.00;101026.97;6128181;23;20099;-88
2021/08/23 05:56:42;;;;;;;47.47;28.55;;;16.70;99.90;;;18.46;100.00;101037.09;6127966;23;20432;-88
2021/08/23 05:59:08;;;;;;;45.33;27.38;;;16.70;99.90;;;18.50;100.00;101031.44;6128883;23;20044;-89
2021/08/23 06:01:35;;;;;;;47.58;29.27;;;16.80;99.90;;;18.56;100.00;101029.84;6128141;23;20009;-89
2021/08/23 06:04:02;;;;;;;47.90;31.00;;;16.80;99.90;;;18.58;100.00;101028.22;6130107;23;20033;-88
2021/08/23 06:06:28;;;;;;;50.83;29.48;;;16.90;99.90;;;18.58;100.00;101031.06;6135464;23;19996;-86
2021/08/23 06:08:53;;;;;;;41.72;27.73;;;16.80;99.90;;;18.59;100.00;101029.84;6174927;23;20025;-87
2021/08/23 06:11:19;;;;;;;34.80;23.63;;;16.90;99.90;;;18.59;100.00;101037.53;6189770;23;20009;-87
2021/08/23 06:13:45;;;;;;;34.90;23.35;;;16.80;99.90;;;18.54;100.00;101035.91;6193113;23;20036;-85
2021/08/23 06:16:11;;;;;;;39.33;25.65;;;16.80;99.90;;;18.49;100.00;101035.47;6196864;23;20005;-85
2021/08/23 06:18:37;;;;;;;39.08;25.48;;;16.80;99.90;;;18.50;100.00;101039.94;6201255;23;20001;-87
2021/08/23 06:21:03;;;;;;;35.03;22.17;;;16.80;99.90;;;18.50;100.00;101040.75;6190782;23;20419;-89
2021/08/23 06:23:30;;;;;;;41.88;25.77;;;16.80;99.90;;;18.49;100.00;101043.97;6166356;23;20005;-85
2021/08/23 06:25:56;;;;;;;43.97;28.00;;;16.80;99.90;;;18.43;100.00;101044.34;6189501;23;20312;-90
2021/08/23 06:28:22;;;;;;;41.25;26.50;;;16.70;99.90;;;18.39;100.00;101042.72;6165792;23;20028;-89
2021/08/23 06:30:48;;;;;;;40.88;27.55;;;16.70;99.90;;;18.37;100.00;101051.59;6190170;23;20013;-92
2021/08/23 06:33:16;;;;;;;40.53;25.65;;;16.70;99.90;;;18.36;100.00;101050.00;6166210;23;20028;-86
2021/08/23 06:35:42;;;;;;;37.08;24.67;;;16.70;99.90;;;18.42;100.00;101054.06;6189456;23;20013;-88
2021/08/23 06:38:08;;;;;;;40.03;25.45;;;16.70;99.90;;;18.49;100.00;101056.09;6191824;23;20035;-86
2021/08/23 06:40:37;;;;;;;39.15;26.35;;;16.80;99.90;;;18.49;100.00;101061.75;6167020;23;20009;-85
2021/08/23 06:43:04;;;;;;;35.50;22.73;;;16.80;99.90;;;18.50;100.00;101068.22;6193273;23;20001;-83
2021/08/23 06:45:29;;;;;;;35.75;22.48;;;16.80;99.90;;;18.51;100.00;101056.50;6193133;23;20439;-87
2021/08/23 06:47:55;;;;;;;30.75;22.38;;;16.80;99.90;;;18.43;100.00;101066.16;6192888;23;20020;-85
2021/08/23 06:50:21;;;;;;;31.20;21.17;;;16.80;99.90;;;18.40;100.00;101062.09;6167510;23;20013;-85
2021/08/23 06:52:47;;;;;;;27.88;19.73;;;16.80;99.90;;;18.32;100.00;101071.00;6167225;23;20013;-87
2021/08/23 06:55:13;;;;;;;28.38;19.65;;;16.70;99.90;;;18.36;100.00;101077.47;6165418;23;20350;-89
2021/08/23 06:57:40;;;;;;;24.75;17.95;;;16.70;99.90;;;18.41;100.00;101074.25;6165020;23;20005;-87
2021/08/23 07:00:08;;;;;;;25.92;17.38;;;16.70;99.90;;;18.46;100.00;101088.00;6166313;23;20435;-88
2021/08/23 07:02:34;;;;;;;22.67;16.92;;;16.70;99.90;;;18.45;100.00;101086.38;6191529;23;20338;-90
2021/08/23 07:05:00;;;;;;;19.58;14.48;;;16.70;99.90;;;18.52;100.00;101086.44;6189384;23;20009;-87
2021/08/23 07:07:26;;;;;;;22.25;16.20;;;16.70;99.90;;;18.46;100.00;101087.19;6161393;23;20013;-89
2021/08/23 07:09:52;;;;;;;20.85;16.27;;;16.70;99.90;;;18.54;100.00;101086.00;6185532;23;20106;-86
2021/08/23 07:12:18;;;;;;;20.52;13.88;;;16.70;99.90;;;18.60;100.00;101090.06;6186745;23;20025;-88
2021/08/23 07:14:44;;;;;;;24.10;17.08;;;16.80;99.90;;;18.66;100.00;101100.56;6185820;23;20020;-89
2021/08/23 07:17:10;;;;;;;22.83;17.38;;;16.80;99.90;;;18.72;100.00;101101.78;6186496;23;20005;-88
2021/08/23 07:19:36;;;;;;;22.65;15.82;;;16.90;99.90;;;18.74;100.00;101102.22;6184859;23;20048;-89
2021/08/23 07:22:03;;;;;;;20.58;14.85;;;16.90;99.90;;;18.72;100.00;101101.78;6187389;23;20010;-89
2021/08/23 07:24:30;;;;;;;20.15;13.88;;;16.90;99.90;;;18.64;100.00;101105.03;6186850;23;20312;-88
2021/08/23 07:26:57;;;;;;;21.48;15.50;;;16.80;99.90;;;18.56;100.00;101103.41;6186535;23;20010;-88
2021/08/23 07:29:24;;;;;;;17.38;14.48;;;16.80;99.90;;;18.44;100.00;101101.72;6184117;23;20009;-89
2021/08/23 07:31:52;;;;;;;23.63;18.17;;;16.70;99.90;;;18.37;100.00;101108.16;6160410;23;20013;-87
2021/08/23 07:34:19;;;;;;;23.15;16.52;;;16.70;99.90;;;18.33;100.00;101110.16;6186107;23;20383;-88
2021/08/23 07:36:45;;;;;;;19.88;16.35;;;16.70;99.90;;;18.40;100.00;101109.38;6161188;23;20005;-87
2021/08/23 07:39:12;;;;;;;19.52;16.52;;;16.70;99.90;;;18.55;100.00;101107.44;6184377;23;20012;-87
2021/08/23 07:41:38;;;;;;;19.67;17.27;;;16.80;99.90;;;18.54;100.00;101114.28;6160780;23;20010;-89
2021/08/23 07:44:04;;;;;;;19.48;16.23;;;16.80;99.90;;;18.67;100.00;101109.88;6187267;23;20103;-90
2021/08/23 07:46:30;;;;;;;25.50;18.95;;;16.90;99.90;;;18.77;100.00;101126.06;6186176;23;20478;-88
2021/08/23 07:48:56;;;;;;;24.08;18.60;;;17.00;99.90;;;18.87;100.00;101125.25;6184687;23;20010;-88
2021/08/23 07:51:21;;;;;;;23.60;16.05;;;17.10;99.90;;;18.99;100.00;101116.38;6187139;23;20014;-84
2021/08/23 07:53:48;;;;;;;25.45;17.92;;;17.20;99.90;;;19.09;100.00;101117.56;6186982;23;20009;-88
2021/08/23 07:56:14;;;;;;;20.60;16.20;;;17.30;99.90;;;19.26;100.00;101125.25;6186864;23;20005;-86
2021/08/23 07:58:40;;;;;;;21.77;17.40;;;17.40;99.90;;;19.30;100.00;101126.06;6164344;23;20028;-88
2021/08/23 08:01:06;;;;;;;21.92;17.02;;;17.50;99.90;;;19.32;100.00;101132.13;6188367;23;20009;-85
2021/08/23 08:03:32;;;;;;;22.88;17.33;;;17.50;99.90;;;19.24;100.00;101134.16;6187851;23;20006;-88
2021/08/23 08:05:59;;;;;;;19.42;15.45;;;17.50;99.90;;;19.10;100.00;101134.19;6163203;23;20010;-85
2021/08/23 08:08:26;;;;;;;18.98;15.77;;;17.40;99.90;;;19.07;100.00;101140.63;6186941;23;20087;-89
2021/08/23 08:10:57;;;;;;;21.17;16.63;;;17.30;99.90;;;19.05;100.00;101154.38;6164092;23;20095;-89
2021/08/23 08:13:25;;;;;;;18.48;14.93;;;17.40;99.90;;;19.10;100.00;101139.84;6164084;23;20006;-88
2021/08/23 08:15:53;;;;;;;16.60;13.20;;;17.40;99.90;;;19.03;98.61;101150.34;6191213;23;20395;-89
2021/08/23 08:18:19;;;;;;;20.60;13.38;;;17.30;99.90;;;18.88;98.79;101144.66;6190534;23;20088;-89
2021/08/23 08:20:46;;;;;;;19.20;13.48;;;17.30;99.90;;;18.72;98.26;101151.94;6178953;23;20021;-84
2021/08/23 08:23:11;;;;;;;16.52;12.30;;;17.20;99.90;;;18.61;97.55;101154.75;6173380;23;20013;-88
2021/08/23 08:25:37;;;;;;;16.98;12.02;;;17.10;99.90;;;18.58;98.61;101151.91;6188305;23;20036;-90
2021/08/23 08:28:05;;;;;;;18.60;14.23;;;16.90;99.90;;;18.55;99.16;101158.34;6185693;23;20449;-91
2021/08/23 08:30:32;;;;;;;18.70;14.07;;;16.90;99.90;;;18.52;99.78;101165.63;6165986;23;20001;-88
2021/08/23 08:32:57;;;;;;;19.67;13.85;;;16.80;99.90;;;18.54;99.98;101168.03;6162450;23;20390;-89
2021/08/23 08:35:24;;;;;;;19.13;15.73;;;16.80;99.90;;;18.53;100.00;101175.72;6164831;23;20025;-88
2021/08/23 08:37:52;;;;;;;18.38;15.55;;;16.90;99.90;;;18.55;99.25;101178.97;6165469;23;20005;-86
2021/08/23 08:40:18;;;;;;;21.95;17.10;;;16.90;99.90;;;18.64;99.56;101190.72;6163929;23;20013;-90
2021/08/23 08:42:46;;;;;;;22.02;15.90;;;16.90;99.90;;;18.74;98.60;101189.13;6166933;23;20006;-87
2021/08/23 08:45:12;;;;;;;24.20;17.65;;;17.00;99.90;;;18.88;98.55;101189.13;6177010;23;20002;-84
2021/08/23 08:47:44;;;;;;;21.27;16.70;;;17.20;99.90;;;19.01;97.21;101198.06;6177398;23;20041;-89
2021/08/23 08:50:16;;;;;;;22.40;17.33;;;17.30;99.90;;;19.11;96.25;101202.91;6159910;23;20092;-91
2021/08/23 08:52:46;;;;;;;20.63;16.00;;;17.30;99.90;;;19.21;96.26;101193.63;6184280;23;20017;-89
2021/08/23 08:55:14;;;;;;;19.95;16.60;;;17.40;99.90;;;19.25;95.57;101200.91;6160989;23;20081;-88
2021/08/23 08:57:40;;;;;;;21.65;15.23;;;17.40;99.90;;;19.20;95.20;101204.13;6157777;23;20021;-91
2021/08/23 09:00:09;;;;;;;20.13;15.40;;;17.40;99.90;;;19.27;95.26;101204.16;6159471;23;20012;-88
2021/08/23 09:02:36;;;;;;;22.13;15.65;;;17.40;99.90;;;19.26;95.55;101202.53;6185026;23;20068;-90
2021/08/23 09:05:16;;;;;;;22.73;16.45;;;17.50;99.90;;;19.22;94.42;101215.88;6162920;23;20005;-88
2021/08/23 09:07:51;;;;;;;25.27;19.42;;;17.40;99.90;;;19.20;93.89;101212.63;6184224;23;20013;-88
2021/08/23 09:10:25;;;;;;;26.45;19.88;;;17.40;99.90;;;19.25;93.05;101203.75;6160229;23;20439;-90
2021/08/23 09:13:10;;;;;;;24.40;18.65;;;17.50;99.90;;;19.25;93.33;101212.25;6184209;23;20013;-91
2021/08/23 09:15:53;;;;;;;19.70;16.25;;;17.50;99.90;;;19.36;93.30;101215.09;6160615;23;20006;-88
2021/08/23 09:18:25;;;;;;;24.35;17.10;;;17.50;99.90;;;19.37;93.15;101213.84;6162915;23;20079;-89
2021/08/23 09:21:07;;;;;;;20.85;16.33;;;17.60;99.90;;;19.61;93.42;101215.09;6184317;23;20006;-88
2021/08/23 09:23:47;;;;;;;20.60;14.77;;;17.80;99.90;;;20.12;92.39;101215.41;6186029;23;20436;-88
2021/08/23 09:26:17;;;;;;;23.20;17.13;;;18.10;99.90;;;20.69;89.05;101209.53;6183978;23;20013;-89
2021/08/23 09:29:04;;;;;;;20.50;16.20;;;18.50;99.90;;;21.27;87.03;101209.56;6161760;23;20009;-88
2021/08/23 09:31:38;;;;;;;18.42;14.57;;;19.10;99.90;;;22.03;82.25;101212.13;6186756;23;20064;-88
2021/08/23 09:34:09;;;;;;;18.88;15.75;;;19.70;99.90;;;22.16;79.10;101220.94;6160614;23;20089;-88
2021/08/23 09:36:40;;;;;;;18.95;14.63;;;19.90;99.90;;;22.02;78.91;101226.78;6182797;23;20020;-86
2021/08/23 09:39:17;;;;;;;16.77;14.23;;;19.90;99.90;;;21.76;79.61;101227.41;6156154;23;20340;-85
2021/08/23 09:41:43;;;;;;;19.05;16.13;;;19.70;99.90;;;21.18;81.97;101220.59;6156929;23;20064;-87
2021/08/23 09:44:14;;;;;;;22.10;16.40;;;19.40;99.90;;;21.01;82.28;101230.00;6181969;23;20387;-86
2021/08/23 09:46:44;;;;;;;17.20;14.27;;;19.20;99.90;;;21.04;82.20;101232.84;6182869;23;20530;-83
2021/08/23 09:49:13;;;;;;;19.77;15.77;;;19.20;99.90;;;20.98;80.86;101233.69;6183458;23;20344;-87
2021/08/23 09:51:45;;;;;;;18.00;14.80;;;19.10;99.90;;;20.92;83.25;101238.19;6156973;23;20033;-85
2021/08/23 09:54:19;;;;;;;20.08;15.75;;;19.10;99.90;;;21.45;82.92;101235.81;6181949;23;20013;-88
2021/08/23 09:56:53;;;;;;;19.75;14.93;;;19.40;99.90;;;22.08;79.95;101227.94;6183292;23;20039;-87
2021/08/23 09:59:24;;;;;;;16.70;13.90;;;19.80;99.90;;;22.37;76.34;101229.22;6182391;23;20024;-88
2021/08/23 10:01:55;;;;;;;19.80;15.73;;;20.20;99.90;;;22.50;75.16;101235.97;6156230;23;20017;-88
2021/08/23 10:04:26;;;;;;;21.52;14.30;;;20.40;99.90;;;22.74;74.99;101234.06;6181117;23;20433;-86
2021/08/23 10:06:54;;;;;;;22.75;15.68;;;20.50;99.90;;;22.75;73.46;101246.25;6181866;23;20059;-86
2021/08/23 10:09:28;;;;;;;21.85;14.50;;;20.60;99.90;;;22.44;75.22;101239.72;6182168;23;20438;-84
2021/08/23 10:11:59;;;;;;;17.67;14.20;;;20.50;99.90;;;22.45;75.32;101239.28;6182904;23;20100;-87
2021/08/23 10:14:26;;;;;;;15.85;12.80;;;20.50;99.90;;;22.48;74.66;101235.56;6182418;23;20092;-85
2021/08/23 10:16:53;;;;;;;16.48;13.65;;;20.50;99.90;;;22.58;74.61;101230.97;6182168;23;20494;-87
2021/08/23 10:19:19;;;;;;;15.82;14.02;;;20.50;99.90;;;22.54;72.86;101233.88;6157879;23;20009;-87
2021/08/23 10:21:51;;;;;;;19.38;15.05;;;20.60;99.90;;;22.62;73.39;101237.44;6183492;23;20056;-87
2021/08/23 10:24:29;;;;;;;18.65;14.27;;;20.60;99.90;;;22.63;72.93;101241.91;6182392;23;20013;-87
2021/08/23 10:26:58;;;;;;;21.02;15.73;;;20.70;99.90;;;22.83;73.51;101242.09;6159433;23;20005;-85
2021/08/23 10:29:36;;;;;;;17.38;14.70;;;20.80;99.90;;;22.74;71.94;101248.28;6182976;23;20013;-88
2021/08/23 10:32:10;;;;;;;15.45;13.43;;;20.80;99.90;;;22.83;73.50;101242.09;6159958;23;20013;-86
2021/08/23 10:34:38;;;;;;;18.70;15.03;;;20.80;99.90;;;23.16;72.00;101252.59;6201787;23;20040;-88
2021/08/23 10:37:22;;;;;;;16.17;13.20;;;21.00;99.90;;;23.36;73.13;101250.66;6163381;23;20241;-85
2021/08/23 10:40:10;;;;;;;16.33;13.10;;;21.10;99.90;;;23.52;70.12;101264.28;6182177;23;20015;-88
2021/08/23 10:42:46;;;;;;;14.63;12.68;;;21.20;99.90;;;23.28;69.01;101256.91;6183309;23;20455;-87
2021/08/23 10:45:17;;;;;;;13.40;11.27;;;21.10;99.90;;;23.01;70.23;101256.88;6159681;23;20010;-88
2021/08/23 10:47:47;;;;;;;18.13;14.07;;;21.00;99.90;;;22.74;69.76;101253.19;6183867;23;20016;-89
2021/08/23 10:50:26;;;;;;;16.67;13.70;;;20.80;99.90;;;22.53;71.08;101254.25;6159057;23;20005;-86
2021/08/23 10:52:55;;;;;;;17.25;13.85;;;20.60;99.90;;;22.63;71.65;101256.16;6181805;23;20345;-87
2021/08/23 10:55:32;;;;;;;15.07;11.35;;;20.60;99.90;;;22.73;71.16;101243.84;6181977;23;20013;-86
2021/08/23 10:58:08;;;;;;;18.30;13.57;;;20.70;99.90;;;22.92;70.53;101254.56;6157044;23;20032;-90
2021/08/23 11:00:36;;;;;;;12.52;11.23;;;20.80;99.90;;;23.05;70.42;101251.94;6182253;23;20357;-86